Time;durP1;ratioP1;P1;durP2;ratioP2;P2;SDS_P1;SDS_P2;PMS_P1;PMS_P2;Temp;Humidity;BMP_temperature;BMP_pressure;BME280_temperature;BME280_humidity;BME280_pressure;Samples;Min_cycle;Max_cycle;Signal;HPM_P1;HPM_P2
2021/04/10 00:00:15;;;;;;;3.22;2.20;;;;;;;8.67;41.83;95172.34;4989263;28;20511;-71
2021/04/10 00:02:40;;;;;;;4.30;2.65;;;;;;;8.61;42.35;95168.19;4989190;28;20092;-71
2021/04/10 00:05:07;;;;;;;6.72;2.42;;;;;;;8.47;41.56;95154.91;4989311;28;20026;-73
2021/04/10 00:07:33;;;;;;;4.00;2.20;;;;;;;8.49;42.01;95162.53;5006218;28;20022;-72
2021/04/10 00:09:58;;;;;;;4.93;2.40;;;;;;;8.38;42.59;95166.44;4989276;28;20050;-73
2021/04/10 00:12:24;;;;;;;4.35;2.58;;;;;;;8.27;42.40;95165.78;4989017;28;20039;-73
2021/04/10 00:14:49;;;;;;;5.72;2.15;;;;;;;8.12;42.46;95164.13;4989022;28;20092;-74
2021/04/10 00:17:14;;;;;;;3.53;2.55;;;;;;;7.97;42.84;95149.25;4989031;28;20046;-73
2021/04/10 00:19:40;;;;;;;3.20;2.42;;;;;;;7.88;43.19;95150.16;4989742;28;20033;-73
2021/04/10 00:22:06;;;;;;;4.50;2.63;;;;;;;7.82;43.39;95155.53;4989078;28;20042;-72
2021/04/10 00:24:31;;;;;;;3.10;2.22;;;;;;;7.76;44.06;95159.34;4989255;28;20042;-73
2021/04/10 00:26:56;;;;;;;4.70;2.42;;;;;;;7.62;43.96;95141.78;4988984;28;20027;-72
2021/04/10 00:29:22;;;;;;;4.57;2.05;;;;;;;7.68;44.04;95152.03;4989084;28;20042;-71
2021/04/10 00:31:47;;;;;;;6.30;2.40;;;;;;;7.61;44.43;95156.09;4990888;28;20061;-72
2021/04/10 00:34:12;;;;;;;4.00;2.53;;;;;;;7.55;45.35;95152.72;4989176;28;20046;-72
2021/04/10 00:36:38;;;;;;;5.85;2.58;;;;;;;7.44;45.72;95149.41;4989042;28;20142;-72
2021/04/10 00:39:04;;;;;;;3.47;2.10;;;;;;;7.44;44.71;95153.94;4988870;28;20038;-72
2021/04/10 00:41:29;;;;;;;5.90;2.60;;;;;;;7.40;45.74;95152.91;4989004;28;20074;-73
2021/04/10 00:43:55;;;;;;;2.33;2.13;;;;;;;7.36;45.65;95149.25;4989373;28;20042;-71
2021/04/10 00:46:20;;;;;;;2.97;2.25;;;;;;;7.31;45.68;95152.75;5006141;28;20088;-73
2021/04/10 00:48:45;;;;;;;4.38;2.20;;;;;;;7.24;45.78;95145.16;4987491;28;20039;-73
2021/04/10 00:51:11;;;;;;;4.47;2.45;;;;;;;7.22;45.90;95139.38;4988735;28;20030;-72
2021/04/10 00:53:37;;;;;;;4.57;2.47;;;;;;;7.20;45.63;95141.50;4990264;28;20518;-72
2021/04/10 00:56:05;;;;;;;4.32;2.58;;;;;;;7.17;45.78;95149.22;4991676;28;20476;-71
2021/04/10 00:58:32;;;;;;;4.47;2.53;;;;;;;7.09;46.37;95137.38;4994708;28;20548;-72
2021/04/10 01:00:58;;;;;;;3.30;2.47;;;;;;;7.03;46.65;95131.38;4991561;28;20109;-72
2021/04/10 01:03:23;;;;;;;9.85;2.85;;;;;;;7.05;46.45;95131.06;4992651;28;20034;-72
2021/04/10 01:05:48;;;;;;;4.68;2.20;;;;;;;7.05;46.57;95136.38;4992589;28;20031;-72
2021/04/10 01:08:14;;;;;;;3.13;2.17;;;;;;;7.02;46.58;95134.31;4992514;28;20043;-72
2021/04/10 01:10:39;;;;;;;4.18;2.42;;;;;;;6.98;46.47;95138.56;4994607;28;20024;-72
2021/04/10 01:13:39;;;;;;;3.08;2.33;;;;;;;6.97;46.98;95142.28;4992449;28;20113;-72
2021/04/10 01:16:15;;;;;;;5.70;2.38;;;;;;;6.88;47.21;95144.75;4992806;28;20050;-72
2021/04/10 01:18:43;;;;;;;5.57;2.30;;;;;;;6.87;46.76;95153.75;4992380;28;20046;-73
2021/04/10 01:21:18;;;;;;;5.00;2.58;;;;;;;6.86;46.90;95146.91;4992575;28;20030;-72
2021/04/10 01:24:01;;;;;;;3.92;2.38;;;;;;;6.84;47.26;95150.88;4992673;28;20575;-72
2021/04/10 01:26:35;;;;;;;5.10;2.75;;;;;;;6.84;47.85;95143.72;4992213;28;20064;-73
2021/04/10 01:29:10;;;;;;;3.58;2.33;;;;;;;6.89;47.62;95146.31;4992069;28;20061;-73
2021/04/10 01:31:50;;;;;;;3.78;2.58;;;;;;;6.96;47.19;95146.78;4993872;28;20034;-72
2021/04/10 01:34:21;;;;;;;3.50;2.28;;;;;;;7.01;47.52;95148.56;4992133;28;20173;-72
2021/04/10 01:36:48;;;;;;;5.83;2.53;;;;;;;7.18;47.07;95154.22;4991862;28;20042;-73
2021/04/10 01:39:15;;;;;;;4.90;2.75;;;;;;;7.26;47.53;95144.84;4990406;28;20034;-72
2021/04/10 01:41:44;;;;;;;8.18;2.63;;;;;;;7.41;46.41;95154.47;4991819;28;20042;-72
2021/04/10 01:44:15;;;;;;;5.97;2.53;;;;;;;7.43;46.81;95152.34;5007359;28;20436;-72
2021/04/10 01:46:41;;;;;;;4.28;2.47;;;;;;;7.43;46.37;95139.91;5008692;28;20124;-73
2021/04/10 01:49:07;;;;;;;4.45;2.83;;;;;;;7.50;46.43;95150.16;4990438;28;20134;-73
2021/04/10 01:51:35;;;;;;;7.60;2.95;;;;;;;7.53;46.28;95158.31;5006469;28;20516;-73
2021/04/10 01:54:01;;;;;;;5.25;2.70;;;;;;;7.52;46.58;95148.00;4991526;28;20048;-73
2021/04/10 01:56:29;;;;;;;3.05;2.60;;;;;;;7.62;46.39;95169.03;4991710;28;20058;-72
2021/04/10 01:58:54;;;;;;;4.97;2.72;;;;;;;7.63;46.83;95159.25;4991349;28;20480;-69
2021/04/10 02:01:21;;;;;;;3.80;2.30;;;;;;;7.71;45.98;95151.47;4993252;28;20037;-72
2021/04/10 02:03:46;;;;;;;3.33;2.83;;;;;;;7.79;46.05;95152.69;4991192;28;20042;-72
2021/04/10 02:06:13;;;;;;;3.97;2.45;;;;;;;7.95;45.88;95167.28;4991345;28;20097;-72
2021/04/10 02:08:42;;;;;;;6.20;3.28;;;;;;;8.00;45.93;95151.34;4989835;28;20120;-73
2021/04/10 02:11:09;;;;;;;4.07;2.47;;;;;;;8.13;45.76;95149.81;4991403;28;20483;-72
2021/04/10 02:13:36;;;;;;;8.02;2.90;;;;;;;8.22;44.91;95149.97;4993052;28;20693;-74
2021/04/10 02:16:02;;;;;;;3.95;2.70;;;;;;;8.27;44.96;95141.94;4991519;28;20493;-72
2021/04/10 02:18:28;;;;;;;5.30;2.70;;;;;;;8.46;44.95;95152.53;4990975;28;20133;-73
2021/04/10 02:20:55;;;;;;;5.93;2.90;;;;;;;8.47;44.60;95135.56;5005179;28;20433;-71
2021/04/10 02:23:21;;;;;;;5.90;2.60;;;;;;;8.60;44.37;95150.72;4989176;28;20403;-70
2021/04/10 02:25:46;;;;;;;3.42;2.80;;;;;;;8.61;44.21;95135.59;4992978;28;20027;-72
2021/04/10 02:28:12;;;;;;;5.80;2.80;;;;;;;8.75;43.94;95154.97;5005846;28;20042;-72
2021/04/10 02:30:37;;;;;;;5.68;2.70;;;;;;;8.78;44.15;95141.13;4991081;28;20085;-72
2021/04/10 02:33:08;;;;;;;4.60;2.80;;;;;;;8.87;43.67;95144.69;5005796;28;20033;-70
2021/04/10 02:35:40;;;;;;;5.13;2.50;;;;;;;8.94;43.92;95144.28;4991034;28;20084;-72
2021/04/10 02:38:07;;;;;;;3.40;2.40;;;;;;;9.01;43.88;95140.19;4990858;28;20074;-71
2021/04/10 02:40:37;;;;;;;5.63;2.30;;;;;;;8.99;43.64;95125.63;4992845;28;20025;-72
2021/04/10 02:43:05;;;;;;;4.30;2.22;;;;;;;9.08;43.25;95127.31;4990685;28;20038;-72
2021/04/10 02:45:32;;;;;;;3.75;2.47;;;;;;;9.17;43.18;95142.56;4990694;28;20038;-72
2021/04/10 02:48:01;;;;;;;2.88;2.28;;;;;;;9.10;43.06;95121.72;4990432;28;20155;-72
2021/04/10 02:50:29;;;;;;;4.25;2.22;;;;;;;9.21;43.13;95131.03;4990717;28;20035;-72
2021/04/10 02:52:56;;;;;;;4.57;2.58;;;;;;;9.26;43.26;95130.16;4990480;28;20544;-66
2021/04/10 02:55:44;;;;;;;5.45;2.80;;;;;;;9.15;43.14;95108.34;5007535;28;20122;-72
2021/04/10 02:58:11;;;;;;;4.03;2.53;;;;;;;9.28;42.98;95133.31;4990248;28;20039;-72
2021/04/10 03:00:41;;;;;;;6.15;2.65;;;;;;;9.30;42.83;95131.16;4990454;28;20035;-72
2021/04/10 03:03:10;;;;;;;3.83;2.72;;;;;;;9.21;42.75;95120.41;4990213;28;20104;-70
2021/04/10 03:05:38;;;;;;;4.68;2.53;;;;;;;9.28;42.63;95139.41;4990356;28;20096;-71
2021/04/10 03:08:06;;;;;;;4.15;2.55;;;;;;;9.26;42.99;95135.47;4990034;28;20037;-71
2021/04/10 03:10:32;;;;;;;3.83;2.20;;;;;;;9.28;42.62;95136.75;4992387;28;20032;-71
2021/04/10 03:12:58;;;;;;;4.72;2.22;;;;;;;9.16;42.85;95107.25;4990105;28;20050;-72
2021/04/10 03:15:23;;;;;;;3.80;2.72;;;;;;;9.22;42.80;95118.59;4988657;28;20421;-71
2021/04/10 03:17:49;;;;;;;4.22;2.40;;;;;;;9.31;42.54;95132.72;4989456;28;20092;-72
2021/04/10 03:20:17;;;;;;;5.78;2.97;;;;;;;9.31;43.13;95135.38;4990064;28;21446;-71
2021/04/10 03:22:44;;;;;;;5.13;2.97;;;;;;;9.32;42.82;95143.06;4991921;28;20034;-73
2021/04/10 03:25:14;;;;;;;5.78;2.60;;;;;;;9.30;42.61;95145.19;4990130;28;20045;-71
2021/04/10 03:27:41;;;;;;;4.25;2.70;;;;;;;9.24;42.78;95142.94;4988692;28;20042;-72
2021/04/10 03:30:08;;;;;;;3.28;2.28;;;;;;;9.20;42.60;95137.44;4990091;28;20031;-72
2021/04/10 03:32:34;;;;;;;4.85;2.78;;;;;;;9.08;42.69;95140.59;4989787;28;20449;-71
2021/04/10 03:35:00;;;;;;;3.80;2.50;;;;;;;9.03;42.91;95148.63;4989817;28;20116;-71
2021/04/10 03:37:29;;;;;;;3.22;2.28;;;;;;;8.89;43.35;95141.72;4991842;28;20461;-72
2021/04/10 03:39:55;;;;;;;10.55;2.58;;;;;;;8.88;43.01;95148.13;4989857;28;20678;-71
2021/04/10 03:42:30;;;;;;;6.25;2.55;;;;;;;8.81;43.27;95144.00;4989492;28;20069;-71
2021/04/10 03:44:55;;;;;;;5.13;2.55;;;;;;;8.72;43.79;95140.44;4989688;28;20550;-72
2021/04/10 03:47:21;;;;;;;3.83;2.70;;;;;;;8.66;43.53;95144.25;4989527;28;20129;-72
2021/04/10 03:49:46;;;;;;;5.60;2.47;;;;;;;8.63;43.87;95149.34;4991476;28;20025;-72
2021/04/10 03:52:11;;;;;;;5.72;2.72;;;;;;;8.66;43.80;95154.88;4987957;28;20031;-71
2021/04/10 03:54:37;;;;;;;6.00;2.33;;;;;;;8.69;44.18;95154.25;4989518;28;20396;-73
2021/04/10 03:57:02;;;;;;;4.70;2.50;;;;;;;8.77;43.92;95163.44;4989303;28;20081;-73
2021/04/10 03:59:28;;;;;;;3.47;2.42;;;;;;;8.84;43.97;95155.88;4989362;28;20524;-72
2021/04/10 04:01:53;;;;;;;4.35;2.50;;;;;;;8.89;44.24;95147.03;4991162;28;20650;-73
2021/04/10 04:04:18;;;;;;;3.72;2.75;;;;;;;8.95;43.27;95136.03;4988220;28;20038;-72
2021/04/10 04:06:44;;;;;;;3.70;2.40;;;;;;;9.05;43.68;95157.06;4989145;28;20674;-72
2021/04/10 04:09:09;;;;;;;6.57;2.95;;;;;;;9.06;43.26;95144.63;5004215;28;20109;-73
2021/04/10 04:11:34;;;;;;;3.28;2.55;;;;;;;9.05;43.29;95157.06;5004095;28;20042;-72
2021/04/10 04:13:59;;;;;;;3.35;2.47;;;;;;;8.97;43.58;95149.03;4989399;28;20057;-71
2021/04/10 04:16:25;;;;;;;7.75;3.00;;;;;;;9.01;43.70;95142.84;4991326;28;20113;-72
2021/04/10 04:18:50;;;;;;;4.78;2.40;;;;;;;9.02;43.61;95152.38;4988996;28;20575;-72
2021/04/10 04:21:15;;;;;;;3.78;2.75;;;;;;;9.12;43.75;95156.72;5003932;28;20499;-71
2021/04/10 04:23:41;;;;;;;3.95;2.55;;;;;;;9.16;43.38;95159.53;4989150;28;20214;-71
2021/04/10 04:26:06;;;;;;;5.90;2.38;;;;;;;9.14;43.68;95146.56;4989058;28;20030;-72
2021/04/10 04:28:31;;;;;;;4.43;2.50;;;;;;;9.26;43.44;95162.00;4995601;28;20034;-73
2021/04/10 04:30:58;;;;;;;5.80;2.55;;;;;;;9.26;43.46;95152.16;4994328;28;20432;-72
2021/04/10 04:33:23;;;;;;;3.35;2.78;;;;;;;9.27;43.35;95150.34;4995344;28;20049;-73
2021/04/10 04:35:49;;;;;;;5.70;2.80;;;;;;;9.41;43.16;95168.91;4995622;28;20496;-72
2021/04/10 04:38:14;;;;;;;4.95;2.88;;;;;;;9.41;43.16;95168.91;4995423;28;20381;-73
2021/04/10 04:40:39;;;;;;;2.67;2.22;;;;;;;9.35;43.21;95161.03;4997356;28;20045;-71
2021/04/10 04:43:04;;;;;;;6.57;2.95;;;;;;;9.32;43.38;95156.31;4995244;28;20041;-71
2021/04/10 04:45:30;;;;;;;6.15;2.90;;;;;;;9.34;43.23;95161.34;4994274;28;20045;-72
2021/04/10 04:47:55;;;;;;;5.55;2.53;;;;;;;9.21;43.22;95162.09;5010139;28;20045;-73
2021/04/10 04:50:21;;;;;;;5.30;2.63;;;;;;;9.15;43.76;95174.69;5010405;28;20038;-72
2021/04/10 04:52:46;;;;;;;4.78;2.22;;;;;;;8.98;44.03;95175.25;4997094;28;20058;-72
2021/04/10 04:55:12;;;;;;;5.70;2.92;;;;;;;9.02;43.75;95181.56;4995497;28;20492;-72
2021/04/10 04:57:37;;;;;;;4.22;2.88;;;;;;;9.01;44.06;95180.00;4995285;28;20045;-73
2021/04/10 05:00:04;;;;;;;5.97;2.65;;;;;;;8.99;43.88;95192.75;4994009;28;20026;-72
2021/04/10 05:02:29;;;;;;;7.45;2.67;;;;;;;9.03;44.29;95185.00;5010264;28;20050;-71
2021/04/10 05:04:55;;;;;;;5.03;2.35;;;;;;;9.15;43.83;95201.22;4995248;28;20022;-72
2021/04/10 05:07:20;;;;;;;8.77;3.13;;;;;;;9.16;43.85;95191.38;5012090;28;20026;-71
2021/04/10 05:09:45;;;;;;;5.07;2.70;;;;;;;9.26;43.58;95199.94;4995220;28;20043;-71
2021/04/10 05:12:11;;;;;;;6.28;3.00;;;;;;;9.31;43.71;95209.69;4995071;28;20119;-71
2021/04/10 05:14:37;;;;;;;8.02;3.15;;;;;;;9.25;43.61;95190.41;4995425;28;20431;-72
2021/04/10 05:17:02;;;;;;;6.55;3.13;;;;;;;9.33;43.57;95203.03;4995126;28;20034;-71
2021/04/10 05:19:27;;;;;;;9.73;3.25;;;;;;;9.31;43.85;95196.41;4997012;28;20023;-71
2021/04/10 05:21:53;;;;;;;3.55;2.63;;;;;;;9.44;43.46;95208.94;4994934;28;20093;-71
2021/04/10 05:24:18;;;;;;;5.75;3.38;;;;;;;9.51;43.41;95200.56;4995077;28;20030;-72
2021/04/10 05:26:43;;;;;;;6.57;3.30;;;;;;;9.54;43.43;95198.09;4995024;28;20061;-72
2021/04/10 05:29:08;;;;;;;6.75;3.35;;;;;;;9.71;42.76;95210.78;4995009;28;20124;-72
2021/04/10 05:31:34;;;;;;;6.53;3.28;;;;;;;9.75;43.08;95203.03;4997091;28;20023;-71
2021/04/10 05:33:59;;;;;;;5.38;2.83;;;;;;;9.84;42.99;95206.56;4995201;28;20049;-72
2021/04/10 05:36:25;;;;;;;5.00;2.85;;;;;;;9.98;42.80;95209.19;4995196;28;20046;-73
2021/04/10 05:38:50;;;;;;;3.95;2.88;;;;;;;10.08;42.68;95217.75;4993367;28;20507;-73
2021/04/10 05:41:17;;;;;;;5.20;2.80;;;;;;;10.16;42.70;95213.59;5007036;28;20039;-72
2021/04/10 05:43:42;;;;;;;7.47;2.55;;;;;;;9.96;41.95;95168.84;4994280;28;20366;-72
2021/04/10 05:46:07;;;;;;;8.38;2.85;;;;;;;10.33;42.30;95215.63;4992040;28;20039;-72
2021/04/10 05:48:33;;;;;;;6.07;2.70;;;;;;;10.40;41.99;95213.38;4991796;28;20082;-74
2021/04/10 05:50:59;;;;;;;9.77;2.80;;;;;;;10.43;41.97;95211.97;4991617;28;20114;-73
2021/04/10 05:53:27;;;;;;;4.68;2.67;;;;;;;10.52;41.36;95202.19;4991361;28;20117;-73
2021/04/10 05:55:52;;;;;;;7.18;2.63;;;;;;;10.67;41.02;95207.94;5008751;28;20026;-72
2021/04/10 05:58:17;;;;;;;7.70;2.70;;;;;;;10.88;41.50;95213.56;4991770;28;20089;-73
2021/04/10 06:00:43;;;;;;;4.65;2.33;;;;;;;11.06;40.55;95217.13;4991641;28;20550;-72
2021/04/10 06:03:08;;;;;;;5.28;2.25;;;;;;;11.27;40.49;95222.72;4991281;28;20558;-72
2021/04/10 06:05:33;;;;;;;4.25;2.30;;;;;;;11.49;40.36;95221.88;4989824;28;20046;-71
2021/04/10 06:07:59;;;;;;;3.03;2.38;;;;;;;11.68;39.60;95218.97;4990999;28;20035;-73
2021/04/10 06:10:24;;;;;;;6.32;3.50;;;;;;;11.91;38.83;95222.34;4993384;28;20866;-72
2021/04/10 06:12:49;;;;;;;5.18;3.10;;;;;;;12.10;38.84;95220.19;5006154;28;20484;-72
2021/04/10 06:15:19;;;;;;;5.20;2.38;;;;;;;12.22;38.81;95214.25;5006411;28;20174;-72
2021/04/10 06:17:46;;;;;;;5.95;1.98;;;;;;;12.44;37.95;95221.34;4991012;28;20035;-72
2021/04/10 06:20:12;;;;;;;3.03;2.20;;;;;;;12.53;38.29;95213.34;5006080;28;20023;-72
2021/04/10 06:22:38;;;;;;;5.10;2.33;;;;;;;12.68;37.46;95213.63;4992871;28;20488;-72
2021/04/10 06:25:06;;;;;;;6.78;2.67;;;;;;;12.97;37.20;95222.88;4991172;28;20065;-72
2021/04/10 06:27:31;;;;;;;3.40;1.98;;;;;;;13.12;37.10;95211.72;5005879;28;20058;-73
2021/04/10 06:29:57;;;;;;;3.33;2.30;;;;;;;13.31;36.60;95200.69;4991201;28;20524;-75
2021/04/10 06:32:22;;;;;;;4.10;2.15;;;;;;;13.66;36.47;95217.38;4990617;28;20038;-73
2021/04/10 06:34:47;;;;;;;3.67;1.85;;;;;;;13.88;35.92;95211.00;4992684;28;20022;-73
2021/04/10 06:37:13;;;;;;;5.30;2.25;;;;;;;14.11;35.52;95216.81;5005609;28;20126;-74
2021/04/10 06:39:39;;;;;;;5.38;1.95;;;;;;;14.27;34.65;95211.69;4990777;28;20112;-73
2021/04/10 06:42:05;;;;;;;4.95;2.13;;;;;;;14.52;34.92;95220.69;4990621;28;20125;-72
2021/04/10 06:44:31;;;;;;;6.32;2.13;;;;;;;14.60;34.33;95208.34;4990789;28;20049;-74
2021/04/10 06:47:00;;;;;;;7.85;2.75;;;;;;;14.82;34.47;95222.16;4990087;28;20030;-74
2021/04/10 06:49:26;;;;;;;4.57;2.55;;;;;;;14.92;34.05;95215.63;4992264;28;20029;-73
2021/04/10 06:51:53;;;;;;;3.45;1.85;;;;;;;14.95;34.07;95208.84;4989251;28;20053;-75
2021/04/10 06:54:21;;;;;;;2.95;2.03;;;;;;;14.85;33.71;95202.00;4990709;28;20050;-73
2021/04/10 06:57:01;;;;;;;4.95;2.13;;;;;;;14.93;33.91;95200.34;4990818;28;20073;-82
2021/04/10 06:59:57;;;;;;;5.35;2.10;;;;;;;15.06;33.64;95210.00;4991600;28;20109;-85
2021/04/10 07:02:24;;;;;;;5.00;2.10;;;;;;;15.07;33.83;95201.63;4992980;28;20093;-85
2021/04/10 07:04:49;;;;;;;3.97;1.77;;;;;;;15.06;33.66;95181.31;4994918;28;20034;-83
2021/04/10 07:07:19;;;;;;;5.05;2.10;;;;;;;15.08;33.06;95213.88;4992791;28;20382;-84
2021/04/10 07:09:44;;;;;;;5.43;1.73;;;;;;;15.08;33.28;95205.84;4992825;28;20027;-83
2021/04/10 07:12:10;;;;;;;2.85;1.85;;;;;;;14.90;33.42;95217.09;5007952;28;20038;-84
2021/04/10 07:14:35;;;;;;;2.38;1.50;;;;;;;14.71;33.07;95206.84;4992785;28;20053;-83
2021/04/10 07:17:01;;;;;;;6.88;1.83;;;;;;;14.61;33.69;95185.81;4992699;28;20113;-82
2021/04/10 07:19:28;;;;;;;3.45;1.60;;;;;;;14.54;33.72;95211.22;4992970;28;20054;-67
2021/04/10 07:22:20;;;;;;;4.47;2.03;;;;;;;13.76;34.80;95206.31;5004852;28;20132;-75
2021/04/10 07:24:48;;;;;;;2.03;1.45;;;;;;;14.44;34.31;95203.56;5007186;28;20097;-69
2021/04/10 07:27:22;;;;;;;5.85;2.10;;;;;;;14.56;34.00;95219.69;4989774;28;20074;-78
2021/04/10 07:29:53;;;;;;;4.32;1.90;;;;;;;12.72;36.09;95149.75;4990306;28;20038;-73
2021/04/10 07:32:27;;;;;;;4.70;2.42;;;;;;;13.43;36.22;95224.84;5004977;28;20899;-70
2021/04/10 07:34:54;;;;;;;5.07;1.80;;;;;;;13.32;36.26;95228.97;4991743;28;20034;-71
2021/04/10 07:37:28;;;;;;;4.18;1.77;;;;;;;13.67;36.07;95231.53;4989650;28;20038;-70
2021/04/10 07:39:54;;;;;;;3.38;1.90;;;;;;;13.65;35.93;95207.78;4990296;28;20035;-83
2021/04/10 07:42:28;;;;;;;16.02;3.70;;;;;;;13.58;36.22;95215.53;4992453;28;20506;-83
2021/04/10 07:44:54;;;;;;;3.20;1.65;;;;;;;13.87;35.70;95230.00;5007585;28;20057;-83
2021/04/10 07:47:33;;;;;;;2.72;1.50;;;;;;;14.59;34.88;95229.00;5007542;28;20461;-80
2021/04/10 07:50:17;;;;;;;4.90;1.52;;;;;;;14.44;35.27;95249.06;5014549;28;20026;-81
2021/04/10 07:52:42;;;;;;;2.60;1.98;;;;;;;13.62;36.46;95205.00;5016346;28;20018;-77
2021/04/10 07:55:08;;;;;;;3.88;1.80;;;;;;;14.09;35.54;95203.00;4994842;28;20089;-70
2021/04/10 07:57:34;;;;;;;4.20;1.77;;;;;;;13.91;36.61;95242.41;4989808;28;20035;-81
2021/04/10 08:00:00;;;;;;;3.17;1.63;;;;;;;13.90;35.86;95216.78;4990978;28;20030;-71
2021/04/10 08:02:34;;;;;;;2.90;1.60;;;;;;;13.56;36.43;95204.34;4990027;28;20129;-68
2021/04/10 08:05:08;;;;;;;2.53;1.63;;;;;;;13.46;36.83;95212.72;4990328;28;20091;-73
2021/04/10 08:07:34;;;;;;;4.30;1.65;;;;;;;14.05;36.04;95247.56;4992305;28;20033;-70
2021/04/10 08:10:03;;;;;;;5.45;1.77;;;;;;;14.09;35.69;95229.75;4990818;28;20038;-74
2021/04/10 08:12:31;;;;;;;3.70;1.55;;;;;;;13.71;36.34;95265.31;4990166;28;20076;-70
2021/04/10 08:14:58;;;;;;;4.75;1.85;;;;;;;13.34;36.79;95188.56;4990527;28;20126;-73
2021/04/10 08:17:42;;;;;;;4.18;1.52;;;;;;;13.09;37.52;95257.72;4990237;28;20061;-72
2021/04/10 08:20:16;;;;;;;4.25;1.13;;;;;;;13.25;37.48;95260.72;4989772;28;20488;-70
2021/04/10 08:22:41;;;;;;;5.30;1.52;;;;;;;13.51;37.53;95258.78;4992207;28;20068;-78
2021/04/10 08:25:09;;;;;;;2.42;1.52;;;;;;;13.33;37.45;95256.47;4990020;28;20070;-71
2021/04/10 08:27:36;;;;;;;4.07;1.40;;;;;;;13.20;38.03;95264.31;4989849;28;20034;-71
2021/04/10 08:30:02;;;;;;;1.75;1.15;;;;;;;12.92;38.51;95255.88;5004995;28;20030;-75
2021/04/10 08:32:27;;;;;;;1.38;0.90;;;;;;;12.60;39.26;95256.34;4989902;28;20100;-72
2021/04/10 08:34:52;;;;;;;2.03;1.27;;;;;;;13.04;38.36;95243.75;4991741;28;20038;-76
2021/04/10 08:37:20;;;;;;;4.38;1.50;;;;;;;13.01;38.47;95262.00;4989889;28;20042;-74
2021/04/10 08:39:48;;;;;;;3.20;1.25;;;;;;;12.64;39.02;95268.75;4990079;28;20042;-74
2021/04/10 08:42:16;;;;;;;3.13;1.45;;;;;;;12.76;38.35;95246.78;5003361;23;20030;-78
2021/04/10 08:44:45;;;;;;;3.50;1.13;;;;;;;13.04;38.32;95273.91;4991909;28;20038;-74
2021/04/10 08:47:11;;;;;;;4.30;1.30;;;;;;;13.28;38.33;95265.44;5009283;28;20069;-73
2021/04/10 08:49:41;;;;;;;2.38;1.15;;;;;;;13.36;38.25;95258.50;5011396;28;20050;-66
2021/04/10 08:52:14;;;;;;;3.30;1.33;;;;;;;13.59;38.17;95269.75;5009779;28;20038;-81
2021/04/10 08:54:41;;;;;;;2.75;1.50;;;;;;;14.02;37.50;95269.59;5009927;28;20121;-73
2021/04/10 08:57:11;;;;;;;3.78;1.65;;;;;;;13.96;37.01;95258.28;5009781;28;20377;-85
2021/04/10 08:59:42;;;;;;;4.60;1.60;;;;;;;14.32;36.48;95265.78;5009684;28;20062;-72
2021/04/10 09:02:19;;;;;;;3.40;1.60;;;;;;;13.93;36.47;95264.28;5009434;28;20480;-75
2021/04/10 09:04:59;;;;;;;3.45;1.75;;;;;;;13.97;36.52;95275.09;5026885;28;20387;-69
2021/04/10 09:07:47;;;;;;;7.10;1.30;;;;;;;13.64;36.65;95280.28;5009935;28;20121;-70
2021/04/10 09:10:24;;;;;;;5.57;1.30;;;;;;;13.80;37.05;95284.00;5002829;28;20038;-69
2021/04/10 09:13:15;;;;;;;3.50;1.33;;;;;;;14.03;36.72;95285.31;5009243;28;20042;-70
2021/04/10 09:15:41;;;;;;;5.70;1.15;;;;;;;14.17;36.66;95279.72;5006931;28;20038;-70
2021/04/10 09:18:10;;;;;;;2.70;1.75;;;;;;;14.36;35.75;95283.91;5011374;28;20045;-69
2021/04/10 09:20:44;;;;;;;3.95;1.80;;;;;;;14.61;35.37;95280.28;5028099;28;20547;-70
2021/04/10 09:23:22;;;;;;;3.00;1.63;;;;;;;14.56;35.47;95270.56;5012926;28;20026;-70
2021/04/10 09:26:20;;;;;;;4.60;1.88;;;;;;;15.23;34.73;95278.69;5015076;28;20488;-71
2021/04/10 09:28:54;;;;;;;3.05;1.60;;;;;;;14.48;35.96;95279.41;4980291;28;20057;-74
2021/04/10 09:31:49;;;;;;;3.97;1.45;;;;;;;15.07;35.24;95259.78;5012710;28;20046;-70
2021/04/10 09:34:46;;;;;;;4.07;1.67;;;;;;;15.37;34.67;95265.00;5012910;28;20048;-69
2021/04/10 09:37:31;;;;;;;2.55;1.50;;;;;;;16.34;33.09;95272.41;5012325;28;20635;-69
2021/04/10 09:40:04;;;;;;;1.95;1.60;;;;;;;14.83;35.06;95279.19;5005026;28;20056;-74
2021/04/10 09:45:08;;;;;;;2.30;1.50;;;;;;;17.15;32.12;95270.56;5012792;28;20072;-71
2021/04/10 09:47:52;;;;;;;3.58;1.92;;;;;;;15.81;33.55;95274.16;5012500;28;20038;-72
2021/04/10 09:50:24;;;;;;;2.97;1.83;;;;;;;15.13;34.76;95290.59;5012162;28;20113;-71
2021/04/10 09:52:54;;;;;;;9.93;1.90;;;;;;;14.93;35.16;95278.78;5013005;28;20399;-71
2021/04/10 09:55:22;;;;;;;4.10;1.80;;;;;;;15.91;33.52;95257.63;5012963;28;20122;-73
2021/04/10 09:58:02;;;;;;;5.15;1.75;;;;;;;14.51;36.17;95286.03;5012115;28;20030;-71
2021/04/10 10:00:28;;;;;;;6.30;1.80;;;;;;;15.45;34.93;95262.22;5012209;28;20065;-71
2021/04/10 10:02:58;;;;;;;3.00;1.52;;;;;;;16.27;33.93;95259.53;5012103;28;20340;-73
2021/04/10 10:05:29;;;;;;;4.35;1.63;;;;;;;15.56;33.80;95255.34;5012261;28;20462;-73
2021/04/10 10:08:02;;;;;;;3.95;1.60;;;;;;;15.19;35.32;95254.44;5011977;28;20466;-72
2021/04/10 10:10:33;;;;;;;4.20;2.00;;;;;;;15.34;35.35;95255.72;5014276;28;20033;-72
2021/04/10 10:13:01;;;;;;;2.33;1.53;;;;;;;15.49;34.94;95248.94;5011948;28;20042;-72
2021/04/10 10:15:26;;;;;;;3.92;1.73;;;;;;;15.86;34.12;95247.13;5012005;28;20049;-70
2021/04/10 10:17:52;;;;;;;2.97;1.85;;;;;;;14.90;36.10;95247.31;5011375;28;20400;-71
2021/04/10 10:20:17;;;;;;;3.25;1.70;;;;;;;14.56;35.68;95253.72;5011125;28;20133;-72
2021/04/10 10:22:43;;;;;;;3.78;1.75;;;;;;;14.97;35.68;95236.06;5012094;28;20072;-75
2021/04/10 10:25:10;;;;;;;5.35;2.22;;;;;;;14.87;35.71;95233.78;5011448;28;20198;-71
2021/04/10 10:27:38;;;;;;;3.60;1.60;;;;;;;14.83;35.49;95245.16;5011275;28;20038;-70
2021/04/10 10:30:19;;;;;;;4.82;2.00;;;;;;;15.14;34.62;95235.91;5011905;28;20038;-71
2021/04/10 10:32:51;;;;;;;4.60;1.98;;;;;;;14.94;35.37;95242.84;5010512;28;20062;-71
2021/04/10 10:35:17;;;;;;;;;;;;;;;15.11;35.82;95230.44;5011791;28;20120;-70
2021/04/10 10:37:46;;;;;;;3.92;2.22;;;;;;;15.77;34.66;95225.00;5013050;28;19914;-71
2021/04/10 10:40:23;;;;;;;5.90;2.05;;;;;;;14.97;35.93;95233.38;5011360;28;20117;-72
2021/04/10 10:43:05;;;;;;;4.97;2.30;;;;;;;14.56;36.28;95225.06;5011233;28;20076;-70
2021/04/10 10:45:45;;;;;;;3.22;2.25;;;;;;;15.44;34.77;95214.31;5011362;28;20050;-70
2021/04/10 10:48:25;;;;;;;2.63;1.85;;;;;;;15.75;34.65;95217.28;5011268;28;20060;-70
2021/04/10 10:51:12;;;;;;;5.72;2.05;;;;;;;16.47;33.90;95200.66;5010916;28;20038;-69
2021/04/10 10:53:43;;;;;;;3.45;2.20;;;;;;;16.82;32.92;95207.09;5011273;28;20034;-70
2021/04/10 10:56:40;;;;;;;3.78;2.13;;;;;;;15.96;34.15;95202.97;5011237;28;20109;-72
2021/04/10 10:59:08;;;;;;;3.65;2.13;;;;;;;16.16;33.83;95198.59;4987832;28;20034;-75
2021/04/10 11:01:42;;;;;;;4.22;2.20;;;;;;;16.01;34.29;95195.47;5012724;28;20647;-68
2021/04/10 11:04:07;;;;;;;5.05;2.55;;;;;;;16.20;34.22;95191.44;5010987;28;20540;-70
2021/04/10 11:06:35;;;;;;;11.88;3.10;;;;;;;15.73;35.04;95184.66;5011115;28;20040;-70
2021/04/10 11:09:03;;;;;;;3.85;2.35;;;;;;;16.27;34.07;95180.91;5010715;28;20036;-69
2021/04/10 11:11:33;;;;;;;18.08;5.80;;;;;;;16.88;34.03;95181.53;5010498;28;20029;-70
2021/04/10 11:13:59;;;;;;;4.53;2.40;;;;;;;16.16;34.15;95169.88;5010699;28;20496;-70
2021/04/10 11:16:24;;;;;;;5.32;2.13;;;;;;;16.78;32.87;95181.25;5012798;28;20049;-70
2021/04/10 11:18:58;;;;;;;6.53;2.88;;;;;;;16.07;33.80;95174.56;5009204;28;20111;-69
2021/04/10 11:21:28;;;;;;;5.05;2.13;;;;;;;16.49;33.34;95177.75;5025332;28;20037;-67
2021/04/10 11:23:56;;;;;;;4.82;1.92;;;;;;;16.98;32.88;95166.81;5010504;28;20491;-70
2021/04/10 11:26:46;;;;;;;8.65;3.38;;;;;;;17.32;32.06;95162.72;5025701;28;20439;-70
2021/04/10 11:29:16;;;;;;;3.97;2.33;;;;;;;17.65;31.65;95156.97;5010670;28;20026;-70
2021/04/10 11:31:43;;;;;;;5.97;2.47;;;;;;;17.77;31.43;95148.09;5011967;28;20510;-71
2021/04/10 11:34:35;;;;;;;2.80;2.20;;;;;;;17.00;32.75;95159.22;5010467;28;20046;-71
2021/04/10 11:37:02;;;;;;;10.25;2.70;;;;;;;17.37;32.53;95154.41;5007518;28;20592;-70
2021/04/10 11:39:29;;;;;;;3.38;2.50;;;;;;;18.28;31.44;95148.06;5010370;28;20042;-69
2021/04/10 11:41:55;;;;;;;7.80;2.65;;;;;;;18.27;30.25;95145.69;5010166;28;20029;-71
2021/04/10 11:44:22;;;;;;;3.67;2.10;;;;;;;18.30;30.37;95142.31;5010378;28;20037;-71
2021/04/10 11:46:48;;;;;;;4.28;2.30;;;;;;;17.30;31.42;95137.28;5011971;28;20129;-70